sensor_id;sensor_type;location;lat;lon;timestamp;temperature;humidity
69261;DHT22;56378;52.404;20.816;2022-12-18T00:00:40;-5.80;92.60
69261;DHT22;56378;52.404;20.816;2022-12-18T00:03:06;-5.80;92.60
69261;DHT22;56378;52.404;20.816;2022-12-18T00:05:33;-5.80;92.50
69261;DHT22;56378;52.404;20.816;2022-12-18T00:07:58;-5.80;92.60
69261;DHT22;56378;52.404;20.816;2022-12-18T00:10:24;-5.80;92.90
69261;DHT22;56378;52.404;20.816;2022-12-18T00:12:50;-5.80;93.10
69261;DHT22;56378;52.404;20.816;2022-12-18T00:15:15;-5.70;93.00
69261;DHT22;56378;52.404;20.816;2022-12-18T00:17:41;-5.70;92.80
69261;DHT22;56378;52.404;20.816;2022-12-18T00:20:08;-5.70;92.70
69261;DHT22;56378;52.404;20.816;2022-12-18T00:22:33;-5.80;92.60
69261;DHT22;56378;52.404;20.816;2022-12-18T00:24:59;-5.80;92.80
69261;DHT22;56378;52.404;20.816;2022-12-18T00:27:25;-5.80;92.60
69261;DHT22;56378;52.404;20.816;2022-12-18T00:29:51;-5.80;92.90
69261;DHT22;56378;52.404;20.816;2022-12-18T00:32:16;-5.70;92.70
69261;DHT22;56378;52.404;20.816;2022-12-18T00:34:43;-5.70;92.10
69261;DHT22;56378;52.404;20.816;2022-12-18T00:37:09;-5.80;91.70
69261;DHT22;56378;52.404;20.816;2022-12-18T00:39:34;-5.80;91.80
69261;DHT22;56378;52.404;20.816;2022-12-18T00:42:00;-5.70;91.40
69261;DHT22;56378;52.404;20.816;2022-12-18T00:44:44;-5.70;91.20
69261;DHT22;56378;52.404;20.816;2022-12-18T00:47:10;-5.70;91.00
69261;DHT22;56378;52.404;20.816;2022-12-18T00:49:36;-5.70;91.00
69261;DHT22;56378;52.404;20.816;2022-12-18T00:52:01;-5.70;91.10
69261;DHT22;56378;52.404;20.816;2022-12-18T00:54:27;-5.70;91.20
69261;DHT22;56378;52.404;20.816;2022-12-18T00:56:53;-5.70;91.30
69261;DHT22;56378;52.404;20.816;2022-12-18T00:59:20;-5.70;91.30
69261;DHT22;56378;52.404;20.816;2022-12-18T01:01:46;-5.70;91.20
69261;DHT22;56378;52.404;20.816;2022-12-18T01:04:13;-5.70;91.50
69261;DHT22;56378;52.404;20.816;2022-12-18T01:06:38;-5.80;91.40
69261;DHT22;56378;52.404;20.816;2022-12-18T01:09:05;-5.80;91.40
69261;DHT22;56378;52.404;20.816;2022-12-18T01:11:31;-5.80;91.60
69261;DHT22;56378;52.404;20.816;2022-12-18T01:14:00;-5.70;91.70
69261;DHT22;56378;52.404;20.816;2022-12-18T01:16:25;-5.70;91.30
69261;DHT22;56378;52.404;20.816;2022-12-18T01:18:52;-5.70;91.50
69261;DHT22;56378;52.404;20.816;2022-12-18T01:21:19;-5.70;91.50
69261;DHT22;56378;52.404;20.816;2022-12-18T01:23:46;-5.80;91.80
69261;DHT22;56378;52.404;20.816;2022-12-18T01:26:14;-5.70;91.80
69261;DHT22;56378;52.404;20.816;2022-12-18T01:28:41;-5.70;91.50
69261;DHT22;56378;52.404;20.816;2022-12-18T01:31:27;-5.70;91.40
69261;DHT22;56378;52.404;20.816;2022-12-18T01:33:53;-5.70;91.30
69261;DHT22;56378;52.404;20.816;2022-12-18T01:36:22;-5.70;91.40
69261;DHT22;56378;52.404;20.816;2022-12-18T01:38:49;-5.70;91.50
69261;DHT22;56378;52.404;20.816;2022-12-18T01:41:18;-5.60;91.40
69261;DHT22;56378;52.404;20.816;2022-12-18T01:46:11;-5.70;91.30
69261;DHT22;56378;52.404;20.816;2022-12-18T01:48:37;-5.70;91.20
69261;DHT22;56378;52.404;20.816;2022-12-18T01:51:05;-5.70;91.30
69261;DHT22;56378;52.404;20.816;2022-12-18T01:53:31;-5.60;91.30
69261;DHT22;56378;52.404;20.816;2022-12-18T01:55:58;-5.70;91.20
69261;DHT22;56378;52.404;20.816;2022-12-18T01:58:41;-5.70;91.30
69261;DHT22;56378;52.404;20.816;2022-12-18T02:01:08;-5.70;91.30
69261;DHT22;56378;52.404;20.816;2022-12-18T02:03:34;-5.70;91.10
69261;DHT22;56378;52.404;20.816;2022-12-18T02:06:11;-5.70;91.10
69261;DHT22;56378;52.404;20.816;2022-12-18T02:08:54;-5.70;91.10
69261;DHT22;56378;52.404;20.816;2022-12-18T02:17:42;-5.70;91.10
69261;DHT22;56378;52.404;20.816;2022-12-18T02:28:33;-5.70;91.10
69261;DHT22;56378;52.404;20.816;2022-12-18T02:31:02;-5.70;91.20
69261;DHT22;56378;52.404;20.816;2022-12-18T02:33:30;-5.70;91.20
69261;DHT22;56378;52.404;20.816;2022-12-18T02:35:58;-5.70;91.00
69261;DHT22;56378;52.404;20.816;2022-12-18T02:38:25;-5.70;90.90
69261;DHT22;56378;52.404;20.816;2022-12-18T02:40:51;-5.70;91.00
69261;DHT22;56378;52.404;20.816;2022-12-18T02:43:18;-5.70;90.90
69261;DHT22;56378;52.404;20.816;2022-12-18T02:45:56;-5.70;90.70
69261;DHT22;56378;52.404;20.816;2022-12-18T02:48:26;-5.70;90.70
69261;DHT22;56378;52.404;20.816;2022-12-18T02:51:29;-5.70;90.60
69261;DHT22;56378;52.404;20.816;2022-12-18T02:54:13;-5.70;90.50
69261;DHT22;56378;52.404;20.816;2022-12-18T02:56:51;-5.70;90.30
69261;DHT22;56378;52.404;20.816;2022-12-18T03:00:03;-5.70;90.30
69261;DHT22;56378;52.404;20.816;2022-12-18T03:03:21;-5.70;90.20
69261;DHT22;56378;52.404;20.816;2022-12-18T03:05:24;-5.80;89.90
69261;DHT22;56378;52.404;20.816;2022-12-18T03:08:00;-5.80;89.90
69261;DHT22;56378;52.404;20.816;2022-12-18T03:10:31;-5.80;90.00
69261;DHT22;56378;52.404;20.816;2022-12-18T03:13:07;-5.80;89.80
69261;DHT22;56378;52.404;20.816;2022-12-18T03:15:55;-5.80;89.90
69261;DHT22;56378;52.404;20.816;2022-12-18T03:18:26;-5.80;90.00
69261;DHT22;56378;52.404;20.816;2022-12-18T03:20:56;-5.80;89.90
69261;DHT22;56378;52.404;20.816;2022-12-18T03:23:27;-5.80;90.00
69261;DHT22;56378;52.404;20.816;2022-12-18T03:25:57;-5.90;90.10
69261;DHT22;56378;52.404;20.816;2022-12-18T03:28:26;-5.80;90.00
69261;DHT22;56378;52.404;20.816;2022-12-18T03:30:56;-5.90;90.00
69261;DHT22;56378;52.404;20.816;2022-12-18T03:35:55;-5.90;90.20
69261;DHT22;56378;52.404;20.816;2022-12-18T03:38:21;-5.90;90.00
69261;DHT22;56378;52.404;20.816;2022-12-18T03:40:59;-6.00;90.10
69261;DHT22;56378;52.404;20.816;2022-12-18T03:43:43;-6.00;89.90
69261;DHT22;56378;52.404;20.816;2022-12-18T03:48:52;-6.00;90.20
69261;DHT22;56378;52.404;20.816;2022-12-18T03:54:06;-6.10;90.00
69261;DHT22;56378;52.404;20.816;2022-12-18T03:56:38;-6.10;89.90
69261;DHT22;56378;52.404;20.816;2022-12-18T03:59:06;-6.10;89.80
69261;DHT22;56378;52.404;20.816;2022-12-18T04:01:39;-6.10;89.70
69261;DHT22;56378;52.404;20.816;2022-12-18T04:04:07;-6.10;89.70
69261;DHT22;56378;52.404;20.816;2022-12-18T04:06:33;-6.10;89.90
69261;DHT22;56378;52.404;20.816;2022-12-18T04:09:00;-6.10;89.80
69261;DHT22;56378;52.404;20.816;2022-12-18T04:11:26;-6.10;89.90
69261;DHT22;56378;52.404;20.816;2022-12-18T04:13:55;-6.20;89.80
69261;DHT22;56378;52.404;20.816;2022-12-18T04:16:22;-6.20;89.80
69261;DHT22;56378;52.404;20.816;2022-12-18T04:18:48;-6.20;90.10
69261;DHT22;56378;52.404;20.816;2022-12-18T04:21:14;-6.20;90.20
69261;DHT22;56378;52.404;20.816;2022-12-18T04:23:40;-6.20;90.30
69261;DHT22;56378;52.404;20.816;2022-12-18T04:26:05;-6.30;90.40
69261;DHT22;56378;52.404;20.816;2022-12-18T04:28:31;-6.30;90.50
69261;DHT22;56378;52.404;20.816;2022-12-18T04:30:57;-6.30;90.40
69261;DHT22;56378;52.404;20.816;2022-12-18T04:33:22;-6.40;90.40
69261;DHT22;56378;52.404;20.816;2022-12-18T04:35:48;-6.40;90.30
69261;DHT22;56378;52.404;20.816;2022-12-18T04:38:14;-6.50;90.30
69261;DHT22;56378;52.404;20.816;2022-12-18T04:40:39;-6.50;90.30
69261;DHT22;56378;52.404;20.816;2022-12-18T04:43:05;-6.60;90.10
69261;DHT22;56378;52.404;20.816;2022-12-18T04:45:32;-6.70;90.20
69261;DHT22;56378;52.404;20.816;2022-12-18T04:47:58;-6.80;90.10
69261;DHT22;56378;52.404;20.816;2022-12-18T04:50:24;-6.90;90.20
69261;DHT22;56378;52.404;20.816;2022-12-18T04:52:50;-7.00;90.60
69261;DHT22;56378;52.404;20.816;2022-12-18T04:55:16;-7.10;90.80
69261;DHT22;56378;52.404;20.816;2022-12-18T04:57:42;-7.20;90.90
69261;DHT22;56378;52.404;20.816;2022-12-18T05:00:08;-7.20;91.00
69261;DHT22;56378;52.404;20.816;2022-12-18T05:02:34;-7.30;91.50
69261;DHT22;56378;52.404;20.816;2022-12-18T05:04:59;-7.30;91.70
69261;DHT22;56378;52.404;20.816;2022-12-18T05:07:25;-7.40;91.90
69261;DHT22;56378;52.404;20.816;2022-12-18T05:09:51;-7.40;91.90
69261;DHT22;56378;52.404;20.816;2022-12-18T05:12:16;-7.40;92.30
69261;DHT22;56378;52.404;20.816;2022-12-18T05:14:42;-7.40;92.30
69261;DHT22;56378;52.404;20.816;2022-12-18T05:17:08;-7.50;92.30
69261;DHT22;56378;52.404;20.816;2022-12-18T05:19:34;-7.50;92.30
69261;DHT22;56378;52.404;20.816;2022-12-18T05:21:59;-7.60;92.60
69261;DHT22;56378;52.404;20.816;2022-12-18T05:24:26;-7.60;92.80
69261;DHT22;56378;52.404;20.816;2022-12-18T05:26:52;-7.60;93.10
69261;DHT22;56378;52.404;20.816;2022-12-18T05:29:18;-7.60;93.60
69261;DHT22;56378;52.404;20.816;2022-12-18T05:31:44;-7.60;93.90
69261;DHT22;56378;52.404;20.816;2022-12-18T05:34:10;-7.60;94.30
69261;DHT22;56378;52.404;20.816;2022-12-18T05:36:35;-7.60;94.70
69261;DHT22;56378;52.404;20.816;2022-12-18T05:39:01;-7.50;95.00
69261;DHT22;56378;52.404;20.816;2022-12-18T05:41:27;-7.50;95.10
69261;DHT22;56378;52.404;20.816;2022-12-18T05:43:54;-7.50;95.40
69261;DHT22;56378;52.404;20.816;2022-12-18T05:46:20;-7.40;95.70
69261;DHT22;56378;52.404;20.816;2022-12-18T05:48:46;-7.30;95.90
69261;DHT22;56378;52.404;20.816;2022-12-18T05:51:17;-7.30;96.10
69261;DHT22;56378;52.404;20.816;2022-12-18T05:53:43;-7.20;96.50
69261;DHT22;56378;52.404;20.816;2022-12-18T05:56:13;-7.20;96.70
69261;DHT22;56378;52.404;20.816;2022-12-18T05:58:39;-7.10;96.70
69261;DHT22;56378;52.404;20.816;2022-12-18T06:01:14;-7.10;96.90
69261;DHT22;56378;52.404;20.816;2022-12-18T06:03:40;-7.10;97.10
69261;DHT22;56378;52.404;20.816;2022-12-18T06:06:19;-7.00;97.30
69261;DHT22;56378;52.404;20.816;2022-12-18T06:08:46;-7.00;97.50
69261;DHT22;56378;52.404;20.816;2022-12-18T06:11:12;-7.00;97.60
69261;DHT22;56378;52.404;20.816;2022-12-18T06:13:38;-6.90;97.80
69261;DHT22;56378;52.404;20.816;2022-12-18T06:16:05;-6.90;97.90
69261;DHT22;56378;52.404;20.816;2022-12-18T06:18:31;-6.90;98.10
69261;DHT22;56378;52.404;20.816;2022-12-18T06:20:59;-6.90;98.70
69261;DHT22;56378;52.404;20.816;2022-12-18T06:23:25;-6.80;98.80
69261;DHT22;56378;52.404;20.816;2022-12-18T06:25:51;-6.80;98.60
69261;DHT22;56378;52.404;20.816;2022-12-18T06:28:17;-6.80;98.70
69261;DHT22;56378;52.404;20.816;2022-12-18T06:30:44;-6.80;98.30
69261;DHT22;56378;52.404;20.816;2022-12-18T06:33:10;-6.90;98.50
69261;DHT22;56378;52.404;20.816;2022-12-18T06:35:35;-6.80;98.50
69261;DHT22;56378;52.404;20.816;2022-12-18T06:38:02;-6.80;98.80
69261;DHT22;56378;52.404;20.816;2022-12-18T06:40:28;-6.80;98.80
69261;DHT22;56378;52.404;20.816;2022-12-18T06:42:54;-6.80;98.80
69261;DHT22;56378;52.404;20.816;2022-12-18T06:45:20;-6.80;98.90
69261;DHT22;56378;52.404;20.816;2022-12-18T06:47:46;-6.70;99.10
69261;DHT22;56378;52.404;20.816;2022-12-18T06:50:12;-6.70;99.30
69261;DHT22;56378;52.404;20.816;2022-12-18T06:52:38;-6.70;99.20
69261;DHT22;56378;52.404;20.816;2022-12-18T06:55:09;-6.70;99.50
69261;DHT22;56378;52.404;20.816;2022-12-18T06:57:34;-6.60;99.60
69261;DHT22;56378;52.404;20.816;2022-12-18T07:00:00;-6.60;99.80
69261;DHT22;56378;52.404;20.816;2022-12-18T07:02:26;-6.60;99.80
69261;DHT22;56378;52.404;20.816;2022-12-18T07:04:52;-6.60;99.80
69261;DHT22;56378;52.404;20.816;2022-12-18T07:07:17;-6.60;99.90
69261;DHT22;56378;52.404;20.816;2022-12-18T07:09:43;-6.50;99.90
69261;DHT22;56378;52.404;20.816;2022-12-18T07:12:09;-6.50;99.30
69261;DHT22;56378;52.404;20.816;2022-12-18T07:14:35;-6.50;99.40
69261;DHT22;56378;52.404;20.816;2022-12-18T07:17:01;-6.40;99.20
69261;DHT22;56378;52.404;20.816;2022-12-18T07:19:27;-6.40;99.10
69261;DHT22;56378;52.404;20.816;2022-12-18T07:21:52;-6.30;98.80
69261;DHT22;56378;52.404;20.816;2022-12-18T07:24:18;-6.40;98.50
69261;DHT22;56378;52.404;20.816;2022-12-18T07:26:47;-6.40;98.60
69261;DHT22;56378;52.404;20.816;2022-12-18T07:29:13;-6.30;98.70
69261;DHT22;56378;52.404;20.816;2022-12-18T07:31:39;-6.30;98.60
69261;DHT22;56378;52.404;20.816;2022-12-18T07:34:04;-6.30;98.50
69261;DHT22;56378;52.404;20.816;2022-12-18T07:36:30;-6.30;98.70
69261;DHT22;56378;52.404;20.816;2022-12-18T07:38:56;-6.30;98.80
69261;DHT22;56378;52.404;20.816;2022-12-18T07:41:21;-6.20;98.70
69261;DHT22;56378;52.404;20.816;2022-12-18T07:43:47;-6.10;98.30
69261;DHT22;56378;52.404;20.816;2022-12-18T07:46:14;-6.00;98.20
69261;DHT22;56378;52.404;20.816;2022-12-18T07:48:44;-6.00;97.80
69261;DHT22;56378;52.404;20.816;2022-12-18T07:51:13;-5.90;97.40
69261;DHT22;56378;52.404;20.816;2022-12-18T07:53:39;-5.90;97.10
69261;DHT22;56378;52.404;20.816;2022-12-18T07:56:10;-5.90;96.60
69261;DHT22;56378;52.404;20.816;2022-12-18T07:58:37;-5.80;96.50
69261;DHT22;56378;52.404;20.816;2022-12-18T08:01:08;-5.80;96.50
69261;DHT22;56378;52.404;20.816;2022-12-18T08:03:35;-5.80;96.30
69261;DHT22;56378;52.404;20.816;2022-12-18T08:06:02;-5.80;96.20
69261;DHT22;56378;52.404;20.816;2022-12-18T08:08:29;-5.80;95.90
69261;DHT22;56378;52.404;20.816;2022-12-18T08:10:55;-5.70;96.00
69261;DHT22;56378;52.404;20.816;2022-12-18T08:13:21;-5.70;95.90
69261;DHT22;56378;52.404;20.816;2022-12-18T08:15:56;-5.70;95.80
69261;DHT22;56378;52.404;20.816;2022-12-18T08:18:22;-5.60;96.00
69261;DHT22;56378;52.404;20.816;2022-12-18T08:20:48;-5.60;95.80
69261;DHT22;56378;52.404;20.816;2022-12-18T08:23:14;-5.50;95.90
69261;DHT22;56378;52.404;20.816;2022-12-18T08:25:40;-5.40;95.00
69261;DHT22;56378;52.404;20.816;2022-12-18T08:28:05;-5.40;94.40
69261;DHT22;56378;52.404;20.816;2022-12-18T08:30:31;-5.40;94.60
69261;DHT22;56378;52.404;20.816;2022-12-18T08:32:57;-5.30;94.50
69261;DHT22;56378;52.404;20.816;2022-12-18T08:35:23;-5.30;94.10
69261;DHT22;56378;52.404;20.816;2022-12-18T08:37:49;-5.30;94.10
69261;DHT22;56378;52.404;20.816;2022-12-18T08:40:15;-5.30;93.70
69261;DHT22;56378;52.404;20.816;2022-12-18T08:42:41;-5.30;93.70
69261;DHT22;56378;52.404;20.816;2022-12-18T08:45:25;-5.30;94.20
69261;DHT22;56378;52.404;20.816;2022-12-18T08:47:51;-5.30;94.10
69261;DHT22;56378;52.404;20.816;2022-12-18T08:50:17;-5.40;94.00
69261;DHT22;56378;52.404;20.816;2022-12-18T08:52:43;-5.40;94.20
69261;DHT22;56378;52.404;20.816;2022-12-18T08:55:09;-5.30;94.60
69261;DHT22;56378;52.404;20.816;2022-12-18T08:57:35;-5.30;94.10
69261;DHT22;56378;52.404;20.816;2022-12-18T09:00:01;-5.30;93.80
69261;DHT22;56378;52.404;20.816;2022-12-18T09:02:27;-5.40;93.90
69261;DHT22;56378;52.404;20.816;2022-12-18T09:04:53;-5.40;93.90
69261;DHT22;56378;52.404;20.816;2022-12-18T09:07:18;-5.40;94.00
69261;DHT22;56378;52.404;20.816;2022-12-18T09:09:44;-5.40;94.30
69261;DHT22;56378;52.404;20.816;2022-12-18T09:12:10;-5.30;94.50
69261;DHT22;56378;52.404;20.816;2022-12-18T09:14:37;-5.30;94.30
69261;DHT22;56378;52.404;20.816;2022-12-18T09:17:02;-5.20;94.20
69261;DHT22;56378;52.404;20.816;2022-12-18T09:19:28;-5.20;94.30
69261;DHT22;56378;52.404;20.816;2022-12-18T09:21:54;-5.10;93.60
69261;DHT22;56378;52.404;20.816;2022-12-18T09:24:23;-5.10;93.60
69261;DHT22;56378;52.404;20.816;2022-12-18T09:26:52;-5.00;93.50
69261;DHT22;56378;52.404;20.816;2022-12-18T09:29:18;-5.00;93.30
69261;DHT22;56378;52.404;20.816;2022-12-18T09:31:43;-4.90;93.20
69261;DHT22;56378;52.404;20.816;2022-12-18T09:34:09;-4.90;92.60
69261;DHT22;56378;52.404;20.816;2022-12-18T09:36:35;-4.90;92.50
69261;DHT22;56378;52.404;20.816;2022-12-18T09:39:01;-4.80;92.50
69261;DHT22;56378;52.404;20.816;2022-12-18T09:41:46;-4.80;92.20
69261;DHT22;56378;52.404;20.816;2022-12-18T09:46:58;-4.80;91.80
69261;DHT22;56378;52.404;20.816;2022-12-18T09:49:28;-4.70;91.40
69261;DHT22;56378;52.404;20.816;2022-12-18T09:55:00;-4.60;91.20
69261;DHT22;56378;52.404;20.816;2022-12-18T09:57:29;-4.60;90.80
69261;DHT22;56378;52.404;20.816;2022-12-18T09:59:59;-4.50;90.60
69261;DHT22;56378;52.404;20.816;2022-12-18T10:02:30;-4.50;90.40
69261;DHT22;56378;52.404;20.816;2022-12-18T10:05:03;-4.40;91.70
69261;DHT22;56378;52.404;20.816;2022-12-18T10:10:52;-4.30;90.90
69261;DHT22;56378;52.404;20.816;2022-12-18T10:13:33;-4.30;90.60
69261;DHT22;56378;52.404;20.816;2022-12-18T10:21:28;-4.30;89.30
69261;DHT22;56378;52.404;20.816;2022-12-18T10:24:18;-4.30;89.10
69261;DHT22;56378;52.404;20.816;2022-12-18T10:26:49;-4.20;89.10
69261;DHT22;56378;52.404;20.816;2022-12-18T10:29:16;-4.20;88.80
69261;DHT22;56378;52.404;20.816;2022-12-18T10:31:42;-4.10;88.50
69261;DHT22;56378;52.404;20.816;2022-12-18T10:34:15;-4.10;88.30
69261;DHT22;56378;52.404;20.816;2022-12-18T10:36:41;-4.00;88.10
69261;DHT22;56378;52.404;20.816;2022-12-18T10:39:18;-3.90;87.50
69261;DHT22;56378;52.404;20.816;2022-12-18T10:41:45;-3.90;87.20
69261;DHT22;56378;52.404;20.816;2022-12-18T10:44:22;-3.80;87.00
69261;DHT22;56378;52.404;20.816;2022-12-18T10:46:51;-3.70;86.60
69261;DHT22;56378;52.404;20.816;2022-12-18T10:49:29;-3.70;86.00
69261;DHT22;56378;52.404;20.816;2022-12-18T10:52:11;-3.70;86.10
69261;DHT22;56378;52.404;20.816;2022-12-18T10:54:40;-3.60;86.30
69261;DHT22;56378;52.404;20.816;2022-12-18T11:02:51;-3.40;84.80
69261;DHT22;56378;52.404;20.816;2022-12-18T11:07:53;-3.20;85.30
69261;DHT22;56378;52.404;20.816;2022-12-18T11:10:33;-3.10;83.90
69261;DHT22;56378;52.404;20.816;2022-12-18T11:13:17;-3.10;82.90
69261;DHT22;56378;52.404;20.816;2022-12-18T11:15:44;-3.10;82.40
69261;DHT22;56378;52.404;20.816;2022-12-18T11:18:31;-3.20;82.40
69261;DHT22;56378;52.404;20.816;2022-12-18T11:21:12;-3.20;82.40
69261;DHT22;56378;52.404;20.816;2022-12-18T11:26:12;-3.30;82.80
69261;DHT22;56378;52.404;20.816;2022-12-18T11:28:52;-3.30;83.80
69261;DHT22;56378;52.404;20.816;2022-12-18T11:31:32;-3.30;84.00
69261;DHT22;56378;52.404;20.816;2022-12-18T11:34:20;-3.20;83.90
69261;DHT22;56378;52.404;20.816;2022-12-18T11:36:48;-3.20;83.90
69261;DHT22;56378;52.404;20.816;2022-12-18T11:39:19;-3.20;83.50
69261;DHT22;56378;52.404;20.816;2022-12-18T11:42:01;-3.10;83.00
69261;DHT22;56378;52.404;20.816;2022-12-18T11:47:42;-3.00;82.70
69261;DHT22;56378;52.404;20.816;2022-12-18T11:50:24;-3.00;82.60
69261;DHT22;56378;52.404;20.816;2022-12-18T11:52:50;-3.00;82.40
69261;DHT22;56378;52.404;20.816;2022-12-18T11:55:41;-3.00;81.80
69261;DHT22;56378;52.404;20.816;2022-12-18T12:06:43;-3.00;80.70
69261;DHT22;56378;52.404;20.816;2022-12-18T12:09:26;-2.90;80.70
69261;DHT22;56378;52.404;20.816;2022-12-18T12:15:04;-3.00;80.50
69261;DHT22;56378;52.404;20.816;2022-12-18T12:20:26;-3.10;80.80
69261;DHT22;56378;52.404;20.816;2022-12-18T12:25:48;-3.30;81.40
69261;DHT22;56378;52.404;20.816;2022-12-18T12:33:53;-3.40;82.90
69261;DHT22;56378;52.404;20.816;2022-12-18T12:39:10;-3.40;83.10
69261;DHT22;56378;52.404;20.816;2022-12-18T12:41:39;-3.50;82.50
69261;DHT22;56378;52.404;20.816;2022-12-18T12:44:26;-3.60;83.10
69261;DHT22;56378;52.404;20.816;2022-12-18T12:46:57;-3.60;83.40
69261;DHT22;56378;52.404;20.816;2022-12-18T12:49:28;-3.70;83.80
69261;DHT22;56378;52.404;20.816;2022-12-18T12:52:15;-3.70;84.40
69261;DHT22;56378;52.404;20.816;2022-12-18T12:54:42;-3.80;84.90
69261;DHT22;56378;52.404;20.816;2022-12-18T12:57:20;-3.80;84.80
69261;DHT22;56378;52.404;20.816;2022-12-18T13:08:02;-3.70;85.80
69261;DHT22;56378;52.404;20.816;2022-12-18T13:10:42;-3.70;85.70
69261;DHT22;56378;52.404;20.816;2022-12-18T13:15:47;-3.80;85.80
69261;DHT22;56378;52.404;20.816;2022-12-18T13:18:21;-3.80;86.10
69261;DHT22;56378;52.404;20.816;2022-12-18T13:20:50;-3.90;86.20
69261;DHT22;56378;52.404;20.816;2022-12-18T13:26:28;-4.00;87.00
69261;DHT22;56378;52.404;20.816;2022-12-18T13:34:17;-4.10;88.50
69261;DHT22;56378;52.404;20.816;2022-12-18T13:36:43;-4.10;89.10
69261;DHT22;56378;52.404;20.816;2022-12-18T13:41:45;-4.20;88.80
69261;DHT22;56378;52.404;20.816;2022-12-18T13:44:34;-4.20;88.70
69261;DHT22;56378;52.404;20.816;2022-12-18T13:47:02;-4.20;88.90
69261;DHT22;56378;52.404;20.816;2022-12-18T13:49:41;-4.20;89.10
69261;DHT22;56378;52.404;20.816;2022-12-18T13:52:24;-4.30;88.30
69261;DHT22;56378;52.404;20.816;2022-12-18T13:54:55;-4.30;88.80
69261;DHT22;56378;52.404;20.816;2022-12-18T13:57:33;-4.30;89.20
69261;DHT22;56378;52.404;20.816;2022-12-18T14:00:26;-4.30;89.40
69261;DHT22;56378;52.404;20.816;2022-12-18T14:02:55;-4.30;89.70
69261;DHT22;56378;52.404;20.816;2022-12-18T14:05:25;-4.30;89.80
69261;DHT22;56378;52.404;20.816;2022-12-18T14:07:52;-4.30;89.80
69261;DHT22;56378;52.404;20.816;2022-12-18T14:10:19;-4.30;89.90
69261;DHT22;56378;52.404;20.816;2022-12-18T14:12:48;-4.30;89.80
69261;DHT22;56378;52.404;20.816;2022-12-18T14:17:54;-4.30;89.50
69261;DHT22;56378;52.404;20.816;2022-12-18T14:20:21;-4.40;89.60
69261;DHT22;56378;52.404;20.816;2022-12-18T14:22:48;-4.40;89.60
69261;DHT22;56378;52.404;20.816;2022-12-18T14:25:23;-4.50;89.70
69261;DHT22;56378;52.404;20.816;2022-12-18T14:28:13;-4.50;90.10
69261;DHT22;56378;52.404;20.816;2022-12-18T14:30:45;-4.60;90.00
69261;DHT22;56378;52.404;20.816;2022-12-18T14:33:16;-4.70;90.00
69261;DHT22;56378;52.404;20.816;2022-12-18T14:40:44;-4.90;91.10
69261;DHT22;56378;52.404;20.816;2022-12-18T14:43:10;-4.90;91.20
69261;DHT22;56378;52.404;20.816;2022-12-18T14:45:41;-5.00;91.50
69261;DHT22;56378;52.404;20.816;2022-12-18T14:48:20;-5.10;91.70
69261;DHT22;56378;52.404;20.816;2022-12-18T14:51:16;-5.10;92.20
69261;DHT22;56378;52.404;20.816;2022-12-18T14:53:43;-5.20;92.70
69261;DHT22;56378;52.404;20.816;2022-12-18T14:56:30;-5.20;93.50
69261;DHT22;56378;52.404;20.816;2022-12-18T14:59:02;-5.30;93.80
69261;DHT22;56378;52.404;20.816;2022-12-18T15:03:59;-5.20;96.00
69261;DHT22;56378;52.404;20.816;2022-12-18T15:08:54;-5.20;94.40
69261;DHT22;56378;52.404;20.816;2022-12-18T15:11:29;-5.30;94.20
69261;DHT22;56378;52.404;20.816;2022-12-18T15:13:57;-5.40;94.40
69261;DHT22;56378;52.404;20.816;2022-12-18T15:16:23;-5.50;95.10
69261;DHT22;56378;52.404;20.816;2022-12-18T15:18:48;-5.50;95.40
69261;DHT22;56378;52.404;20.816;2022-12-18T15:21:18;-5.50;95.60
69261;DHT22;56378;52.404;20.816;2022-12-18T15:26:12;-5.60;95.80
69261;DHT22;56378;52.404;20.816;2022-12-18T15:28:52;-5.60;96.10
69261;DHT22;56378;52.404;20.816;2022-12-18T15:31:30;-5.60;96.10
69261;DHT22;56378;52.404;20.816;2022-12-18T15:36:24;-5.70;97.20
69261;DHT22;56378;52.404;20.816;2022-12-18T15:38:56;-5.70;97.30
69261;DHT22;56378;52.404;20.816;2022-12-18T15:41:23;-5.70;97.60
69261;DHT22;56378;52.404;20.816;2022-12-18T15:43:50;-5.70;97.70
69261;DHT22;56378;52.404;20.816;2022-12-18T15:46:20;-5.70;97.50
69261;DHT22;56378;52.404;20.816;2022-12-18T15:48:48;-5.80;97.70
69261;DHT22;56378;52.404;20.816;2022-12-18T15:51:35;-5.80;98.00
69261;DHT22;56378;52.404;20.816;2022-12-18T15:54:04;-5.80;97.90
69261;DHT22;56378;52.404;20.816;2022-12-18T15:56:30;-5.80;98.00
69261;DHT22;56378;52.404;20.816;2022-12-18T15:59:17;-5.80;98.10
69261;DHT22;56378;52.404;20.816;2022-12-18T16:01:45;-5.80;98.10
69261;DHT22;56378;52.404;20.816;2022-12-18T16:04:13;-5.90;98.40
69261;DHT22;56378;52.404;20.816;2022-12-18T16:06:39;-5.90;98.60
69261;DHT22;56378;52.404;20.816;2022-12-18T16:09:05;-5.90;98.70
69261;DHT22;56378;52.404;20.816;2022-12-18T16:11:32;-5.90;98.80
69261;DHT22;56378;52.404;20.816;2022-12-18T16:14:26;-5.90;99.10
69261;DHT22;56378;52.404;20.816;2022-12-18T16:16:55;-5.90;99.40
69261;DHT22;56378;52.404;20.816;2022-12-18T16:19:21;-6.00;99.50
69261;DHT22;56378;52.404;20.816;2022-12-18T16:21:48;-5.90;98.70
69261;DHT22;56378;52.404;20.816;2022-12-18T16:24:22;-6.00;98.80
69261;DHT22;56378;52.404;20.816;2022-12-18T16:26:50;-6.00;99.20
69261;DHT22;56378;52.404;20.816;2022-12-18T16:29:17;-6.00;99.20
69261;DHT22;56378;52.404;20.816;2022-12-18T16:31:43;-6.00;99.20
69261;DHT22;56378;52.404;20.816;2022-12-18T16:36:49;-6.00;99.40
69261;DHT22;56378;52.404;20.816;2022-12-18T16:39:15;-6.00;99.70
69261;DHT22;56378;52.404;20.816;2022-12-18T16:41:41;-6.00;99.80
69261;DHT22;56378;52.404;20.816;2022-12-18T16:44:07;-6.10;99.90
69261;DHT22;56378;52.404;20.816;2022-12-18T16:46:33;-6.10;99.90
69261;DHT22;56378;52.404;20.816;2022-12-18T16:49:00;-6.10;99.90
69261;DHT22;56378;52.404;20.816;2022-12-18T16:51:26;-6.10;99.90
69261;DHT22;56378;52.404;20.816;2022-12-18T16:53:56;-6.10;99.90
69261;DHT22;56378;52.404;20.816;2022-12-18T16:56:24;-6.10;99.90
69261;DHT22;56378;52.404;20.816;2022-12-18T16:58:55;-6.10;99.90
69261;DHT22;56378;52.404;20.816;2022-12-18T17:01:22;-6.10;99.90
69261;DHT22;56378;52.404;20.816;2022-12-18T17:03:57;-6.10;99.90
69261;DHT22;56378;52.404;20.816;2022-12-18T17:06:24;-6.10;99.90
69261;DHT22;56378;52.404;20.816;2022-12-18T17:09:17;-6.10;99.90
69261;DHT22;56378;52.404;20.816;2022-12-18T17:11:49;-6.10;99.90
69261;DHT22;56378;52.404;20.816;2022-12-18T17:14:19;-6.10;99.90
69261;DHT22;56378;52.404;20.816;2022-12-18T17:16:45;-6.10;99.90
69261;DHT22;56378;52.404;20.816;2022-12-18T17:19:12;-6.10;99.90
69261;DHT22;56378;52.404;20.816;2022-12-18T17:21:38;-6.10;99.90
69261;DHT22;56378;52.404;20.816;2022-12-18T17:24:04;-6.10;99.90
69261;DHT22;56378;52.404;20.816;2022-12-18T17:26:30;-6.10;99.90
69261;DHT22;56378;52.404;20.816;2022-12-18T17:28:57;-6.10;99.90
69261;DHT22;56378;52.404;20.816;2022-12-18T17:31:25;-6.10;99.90